Prestwick Arpt, United Kingdom

4:40 AM GMT on December 03, 2016 (GMT +0000)
Crummieholm Gardens | | Change Station

Elev 95 ft 55.55 °N, 4.63 °W | Updated 2 minutes ago

Patches of Fog
Patches Fog
41.4 °F
Feels Like 41 °F
N
0.6
Wind Variable Wind from South
Gusts 3.7 mph

Today
High -- | Low -- °F
--% Chance of Precip.
Yesterday
High -- | Low -- °F
Precip. -- in
Pressure 30.33 in
Visibility -9999.0 miles
Clouds Mostly Cloudy 3600 ft
Windchill 41 °F
Dew Point 39 °F
Humidity 92%
Rainfall 0.00 in
Snow Depth Not available.
8:26 AM 3:50 PM
Waxing Crescent, 12% visible
METAR EGPF 030420Z AUTO 02002KT 0550 BCFG BKN036 02/02 Q1027
Pressure 30.33 in
Visibility -9999.0 miles
Clouds Mostly Cloudy 3600 ft
Windchill 41 °F
Dew Point 39 °F
Humidity 92%
Rainfall 0.00 in
Snow Depth Not available.
8:26 AM 3:50 PM
Waxing Crescent, 12% visible
METAR EGPF 030420Z AUTO 02002KT 0550 BCFG BKN036 02/02 Q1027

10-Day Weather Forecast

×

Almanac

Astronomy

Dec. 03, 2016 Rise Set
Actual Time
Civil Twilight
Nautical Twilight
Astronomical Twilight
Moon
Length of Visible Light
Length of Day
Tomorrow will be .
, % of the Moon is Illuminated

Today's Extremes

Country Highs Country Lows

Community

WunderPhotos

Upload Photos

1,955,411 photos uploaded!

WunderBlog® & News

Nearby

Air Quality

  Air Quality AQ Index Pollutant
Not available.

Snow Depth

Station Depth Elevation

Earthquake Activity

City Distance Mag. Time & Date
Minimum magnitude displayed is 2.5.

Coastal Water Temperatures

Place Temperature

Stations

Nearby Weather Stations

Station Location Temp. Windchill Dew Point Humidity Wind Precip. Elev Updated Type